Deerfield, MA (01342)

11:38 PM EST on January 25, 2015 (GMT -0500)
Bement School | Change Station
CLOSE
Current Station
Personal Weather Station
Location: Deerfield, MA
Elevation: 164 ft
Nearby Weather Stations
Active Advisory: Winter Storm Warning

Elev 164 ft 42.55 °N, 72.60 °W | Updated 3 minutes ago

Partly Cloudy
Partly Cloudy
22.6 °F
Feels Like 23 °F
N
0.0
Wind Variable Wind from ENE
Gusts 0.0 mph

Today
High -- | Low -- °F
--% Chance of Precip.
Yesterday
High -- | Low -- °F
Precip. -- in
7:11 AM 4:54 PM
Waxing Crescent, 39% visible
Pressure 30.03 in
Visibility 10.0 miles
Clouds Clear
Windchill 23 °F
Dew Point 18 °F
Humidity 82%
Rainfall 0.00 in
Snow Depth Not available.
UV 0 out of 12
Pollen .10 out of 12
Air Quality Not available.
Flu Activity Not available.
METAR KORE 260352Z AUTO 36006KT 10SM CLR M09/M17 A3000 RMK AO2 SLP168 T10941167

More Conditions Fewer Conditions

Pressure 30.03 in
Visibility 10.0 miles
Clouds Clear
Windchill 23 °F
Dew Point 18 °F
Humidity 82%
Rainfall 0.00 in
Snow Depth Not available.
UV 0 out of 12
Pollen .10 out of 12
Air Quality Not available.
Flu Activity Not available.
METAR KORE 260352Z AUTO 36006KT 10SM CLR M09/M17 A3000 RMK AO2 SLP168 T10941167

More Conditions Fewer Conditions

10-Day Weather Forecast

Almanac

Astronomy

Jan. 25, 2015 Rise Set
Actual Time
Civil Twilight
Nautical Twilight
Astronomical Twilight
Moon
Length of Visible Light
Length of Day
Tomorrow will be .
, % of the Moon is Illuminated

Today's Extremes

State Highs State Lows

Community

WunderPhotos

Upload Photos

1,790,138 photos uploaded!

WunderBlogs® & News

Nearby

Air Quality

  Air Quality AQ Index Pollutant
Not available.

Snow Depth

Station Depth Elevation

Earthquake Activity

City Distance Mag. Time & Date
Minimum magnitude displayed is 2.5.

Coastal Water Temperatures

Place Temperature

Nearby Weather Stations